sensor_id;sensor_type;location;lat;lon;timestamp;P1;durP1;ratioP1;P2;durP2;ratioP2
23400;SDS011;11873;49.300;8.920;2022-08-19T00:03:46;9.53;;;8.70;;
23400;SDS011;11873;49.300;8.920;2022-08-19T00:08:46;10.73;;;9.73;;
23400;SDS011;11873;49.300;8.920;2022-08-19T00:13:46;10.37;;;9.23;;
23400;SDS011;11873;49.300;8.920;2022-08-19T00:18:47;9.77;;;8.87;;
23400;SDS011;11873;49.300;8.920;2022-08-19T00:23:47;11.20;;;9.50;;
23400;SDS011;11873;49.300;8.920;2022-08-19T00:28:47;11.53;;;9.53;;
23400;SDS011;11873;49.300;8.920;2022-08-19T00:33:47;11.17;;;9.60;;
23400;SDS011;11873;49.300;8.920;2022-08-19T00:38:48;11.20;;;9.83;;
23400;SDS011;11873;49.300;8.920;2022-08-19T00:44:06;11.03;;;9.60;;
23400;SDS011;11873;49.300;8.920;2022-08-19T00:49:10;10.60;;;9.17;;
23400;SDS011;11873;49.300;8.920;2022-08-19T00:54:11;9.77;;;8.87;;
23400;SDS011;11873;49.300;8.920;2022-08-19T00:59:12;10.53;;;9.47;;
23400;SDS011;11873;49.300;8.920;2022-08-19T01:04:13;10.50;;;9.27;;
23400;SDS011;11873;49.300;8.920;2022-08-19T01:09:13;10.57;;;9.53;;
23400;SDS011;11873;49.300;8.920;2022-08-19T01:14:14;11.63;;;9.27;;
23400;SDS011;11873;49.300;8.920;2022-08-19T01:19:33;11.20;;;9.67;;
23400;SDS011;11873;49.300;8.920;2022-08-19T01:24:35;12.37;;;10.07;;
23400;SDS011;11873;49.300;8.920;2022-08-19T01:29:36;11.80;;;9.10;;
23400;SDS011;11873;49.300;8.920;2022-08-19T01:34:37;11.27;;;9.87;;
23400;SDS011;11873;49.300;8.920;2022-08-19T01:39:38;10.40;;;9.40;;
23400;SDS011;11873;49.300;8.920;2022-08-19T01:44:39;11.70;;;10.20;;
23400;SDS011;11873;49.300;8.920;2022-08-19T01:49:39;11.43;;;10.23;;
23400;SDS011;11873;49.300;8.920;2022-08-19T01:54:39;12.40;;;10.83;;
23400;SDS011;11873;49.300;8.920;2022-08-19T01:59:40;11.53;;;10.30;;
23400;SDS011;11873;49.300;8.920;2022-08-19T02:04:41;12.13;;;10.83;;
23400;SDS011;11873;49.300;8.920;2022-08-19T02:09:41;12.60;;;11.33;;
23400;SDS011;11873;49.300;8.920;2022-08-19T02:14:41;14.37;;;10.83;;
23400;SDS011;11873;49.300;8.920;2022-08-19T02:19:42;11.35;;;10.05;;
23400;SDS011;11873;49.300;8.920;2022-08-19T02:24:42;12.87;;;11.40;;
23400;SDS011;11873;49.300;8.920;2022-08-19T02:29:42;11.60;;;10.50;;
23400;SDS011;11873;49.300;8.920;2022-08-19T02:34:42;13.87;;;11.03;;
23400;SDS011;11873;49.300;8.920;2022-08-19T02:39:43;12.43;;;10.60;;
23400;SDS011;11873;49.300;8.920;2022-08-19T02:44:43;10.83;;;9.73;;
23400;SDS011;11873;49.300;8.920;2022-08-19T02:49:43;12.33;;;11.03;;
23400;SDS011;11873;49.300;8.920;2022-08-19T02:54:43;12.67;;;11.13;;
23400;SDS011;11873;49.300;8.920;2022-08-19T02:59:44;14.60;;;11.30;;
23400;SDS011;11873;49.300;8.920;2022-08-19T03:04:44;14.10;;;11.20;;
23400;SDS011;11873;49.300;8.920;2022-08-19T03:09:44;13.07;;;11.47;;
23400;SDS011;11873;49.300;8.920;2022-08-19T03:14:44;12.97;;;10.27;;
23400;SDS011;11873;49.300;8.920;2022-08-19T03:19:44;14.23;;;10.37;;
23400;SDS011;11873;49.300;8.920;2022-08-19T03:24:44;13.27;;;10.73;;
23400;SDS011;11873;49.300;8.920;2022-08-19T03:29:45;11.53;;;10.43;;
23400;SDS011;11873;49.300;8.920;2022-08-19T03:34:45;12.43;;;11.13;;
23400;SDS011;11873;49.300;8.920;2022-08-19T03:39:45;13.30;;;11.63;;
23400;SDS011;11873;49.300;8.920;2022-08-19T03:44:45;13.30;;;11.63;;
23400;SDS011;11873;49.300;8.920;2022-08-19T03:49:45;11.73;;;10.50;;
23400;SDS011;11873;49.300;8.920;2022-08-19T03:54:46;14.60;;;11.47;;
23400;SDS011;11873;49.300;8.920;2022-08-19T03:59:46;13.30;;;11.20;;
23400;SDS011;11873;49.300;8.920;2022-08-19T04:04:46;12.33;;;10.70;;
23400;SDS011;11873;49.300;8.920;2022-08-19T04:09:47;13.27;;;11.07;;
23400;SDS011;11873;49.300;8.920;2022-08-19T04:14:47;11.93;;;10.37;;
23400;SDS011;11873;49.300;8.920;2022-08-19T04:19:47;11.87;;;10.67;;
23400;SDS011;11873;49.300;8.920;2022-08-19T04:24:47;13.37;;;11.07;;
23400;SDS011;11873;49.300;8.920;2022-08-19T04:29:48;12.47;;;10.93;;
23400;SDS011;11873;49.300;8.920;2022-08-19T04:34:48;14.93;;;12.10;;
23400;SDS011;11873;49.300;8.920;2022-08-19T04:39:48;13.40;;;11.30;;
23400;SDS011;11873;49.300;8.920;2022-08-19T04:44:48;13.77;;;11.93;;
23400;SDS011;11873;49.300;8.920;2022-08-19T04:49:48;14.20;;;10.90;;
23400;SDS011;11873;49.300;8.920;2022-08-19T04:54:48;12.83;;;11.07;;
23400;SDS011;11873;49.300;8.920;2022-08-19T04:59:49;13.23;;;11.43;;
23400;SDS011;11873;49.300;8.920;2022-08-19T05:04:49;15.53;;;11.03;;
23400;SDS011;11873;49.300;8.920;2022-08-19T05:09:49;13.17;;;11.63;;
23400;SDS011;11873;49.300;8.920;2022-08-19T05:14:49;12.93;;;11.53;;
23400;SDS011;11873;49.300;8.920;2022-08-19T05:19:49;13.73;;;11.53;;
23400;SDS011;11873;49.300;8.920;2022-08-19T05:24:49;16.67;;;12.37;;
23400;SDS011;11873;49.300;8.920;2022-08-19T05:29:50;19.00;;;11.93;;
23400;SDS011;11873;49.300;8.920;2022-08-19T05:34:50;13.87;;;11.53;;
23400;SDS011;11873;49.300;8.920;2022-08-19T05:39:50;12.10;;;10.83;;
23400;SDS011;11873;49.300;8.920;2022-08-19T05:44:50;12.23;;;10.97;;
23400;SDS011;11873;49.300;8.920;2022-08-19T05:49:51;15.10;;;11.17;;
23400;SDS011;11873;49.300;8.920;2022-08-19T05:54:51;14.40;;;10.30;;
23400;SDS011;11873;49.300;8.920;2022-08-19T05:59:51;11.40;;;9.70;;
23400;SDS011;11873;49.300;8.920;2022-08-19T06:04:51;9.63;;;8.63;;
23400;SDS011;11873;49.300;8.920;2022-08-19T06:09:52;9.53;;;8.57;;
23400;SDS011;11873;49.300;8.920;2022-08-19T06:14:52;11.57;;;8.97;;
23400;SDS011;11873;49.300;8.920;2022-08-19T06:19:52;9.47;;;8.53;;
23400;SDS011;11873;49.300;8.920;2022-08-19T06:24:52;11.03;;;8.27;;
23400;SDS011;11873;49.300;8.920;2022-08-19T06:29:53;11.53;;;9.40;;
23400;SDS011;11873;49.300;8.920;2022-08-19T06:34:53;9.17;;;8.27;;
23400;SDS011;11873;49.300;8.920;2022-08-19T06:39:53;9.63;;;8.63;;
23400;SDS011;11873;49.300;8.920;2022-08-19T06:44:53;10.60;;;9.40;;
23400;SDS011;11873;49.300;8.920;2022-08-19T06:49:54;10.57;;;8.30;;
23400;SDS011;11873;49.300;8.920;2022-08-19T06:54:55;10.07;;;8.90;;
23400;SDS011;11873;49.300;8.920;2022-08-19T06:59:55;8.87;;;7.97;;
23400;SDS011;11873;49.300;8.920;2022-08-19T07:04:55;10.57;;;9.17;;
23400;SDS011;11873;49.300;8.920;2022-08-19T07:09:55;8.43;;;7.57;;
23400;SDS011;11873;49.300;8.920;2022-08-19T07:14:57;9.50;;;8.20;;
23400;SDS011;11873;49.300;8.920;2022-08-19T07:19:58;11.23;;;8.70;;
23400;SDS011;11873;49.300;8.920;2022-08-19T07:24:58;10.47;;;8.37;;
23400;SDS011;11873;49.300;8.920;2022-08-19T07:29:58;10.67;;;8.87;;
23400;SDS011;11873;49.300;8.920;2022-08-19T07:34:58;10.33;;;9.00;;
23400;SDS011;11873;49.300;8.920;2022-08-19T07:40:02;8.67;;;7.77;;
23400;SDS011;11873;49.300;8.920;2022-08-19T07:45:03;9.10;;;8.20;;
23400;SDS011;11873;49.300;8.920;2022-08-19T07:50:05;9.93;;;7.77;;
23400;SDS011;11873;49.300;8.920;2022-08-19T07:55:06;12.20;;;8.40;;
23400;SDS011;11873;49.300;8.920;2022-08-19T08:00:06;11.03;;;8.60;;
23400;SDS011;11873;49.300;8.920;2022-08-19T08:05:07;9.07;;;8.17;;
23400;SDS011;11873;49.300;8.920;2022-08-19T08:10:07;8.00;;;7.00;;
23400;SDS011;11873;49.300;8.920;2022-08-19T08:15:10;7.60;;;6.77;;
23400;SDS011;11873;49.300;8.920;2022-08-19T08:20:10;7.57;;;6.80;;
23400;SDS011;11873;49.300;8.920;2022-08-19T08:25:14;8.93;;;6.60;;
23400;SDS011;11873;49.300;8.920;2022-08-19T08:30:17;7.43;;;6.50;;
23400;SDS011;11873;49.300;8.920;2022-08-19T08:35:18;7.40;;;6.63;;
23400;SDS011;11873;49.300;8.920;2022-08-19T08:40:29;7.07;;;6.23;;
23400;SDS011;11873;49.300;8.920;2022-08-19T08:45:33;9.37;;;6.10;;
23400;SDS011;11873;49.300;8.920;2022-08-19T08:50:36;7.33;;;6.43;;
23400;SDS011;11873;49.300;8.920;2022-08-19T08:55:40;8.13;;;5.63;;
23400;SDS011;11873;49.300;8.920;2022-08-19T09:00:46;8.13;;;6.37;;
23400;SDS011;11873;49.300;8.920;2022-08-19T09:10:54;7.50;;;6.73;;
23400;SDS011;11873;49.300;8.920;2022-08-19T09:15:56;8.73;;;6.57;;
23400;SDS011;11873;49.300;8.920;2022-08-19T09:20:57;6.23;;;5.73;;
23400;SDS011;11873;49.300;8.920;2022-08-19T09:25:58;7.50;;;6.20;;
23400;SDS011;11873;49.300;8.920;2022-08-19T09:30:58;7.53;;;5.93;;
23400;SDS011;11873;49.300;8.920;2022-08-19T09:36:06;6.23;;;5.63;;
23400;SDS011;11873;49.300;8.920;2022-08-19T09:41:07;4.83;;;4.33;;
23400;SDS011;11873;49.300;8.920;2022-08-19T09:46:08;4.83;;;4.43;;
23400;SDS011;11873;49.300;8.920;2022-08-19T09:51:10;4.67;;;4.37;;
23400;SDS011;11873;49.300;8.920;2022-08-19T09:56:10;5.63;;;4.17;;
23400;SDS011;11873;49.300;8.920;2022-08-19T10:01:18;6.40;;;4.43;;
23400;SDS011;11873;49.300;8.920;2022-08-19T10:06:19;3.97;;;3.67;;
23400;SDS011;11873;49.300;8.920;2022-08-19T10:11:20;4.20;;;3.80;;
23400;SDS011;11873;49.300;8.920;2022-08-19T10:16:21;6.27;;;4.47;;
23400;SDS011;11873;49.300;8.920;2022-08-19T10:21:22;4.33;;;3.93;;
23400;SDS011;11873;49.300;8.920;2022-08-19T10:26:25;6.77;;;4.43;;
23400;SDS011;11873;49.300;8.920;2022-08-19T10:31:26;4.83;;;3.73;;
23400;SDS011;11873;49.300;8.920;2022-08-19T10:36:29;5.73;;;4.23;;
23400;SDS011;11873;49.300;8.920;2022-08-19T10:41:30;6.20;;;4.40;;
23400;SDS011;11873;49.300;8.920;2022-08-19T10:46:32;5.07;;;4.57;;
23400;SDS011;11873;49.300;8.920;2022-08-19T10:51:32;4.53;;;4.17;;
23400;SDS011;11873;49.300;8.920;2022-08-19T10:56:33;4.97;;;4.53;;
23400;SDS011;11873;49.300;8.920;2022-08-19T11:01:33;5.50;;;4.63;;
23400;SDS011;11873;49.300;8.920;2022-08-19T11:06:34;6.57;;;5.30;;
23400;SDS011;11873;49.300;8.920;2022-08-19T11:11:34;5.53;;;4.80;;
23400;SDS011;11873;49.300;8.920;2022-08-19T11:16:35;6.10;;;5.47;;
23400;SDS011;11873;49.300;8.920;2022-08-19T11:21:37;5.63;;;4.80;;
23400;SDS011;11873;49.300;8.920;2022-08-19T11:26:38;4.77;;;4.37;;
23400;SDS011;11873;49.300;8.920;2022-08-19T11:31:43;4.80;;;4.40;;
23400;SDS011;11873;49.300;8.920;2022-08-19T11:36:44;5.27;;;4.33;;
23400;SDS011;11873;49.300;8.920;2022-08-19T11:41:45;6.17;;;4.43;;
23400;SDS011;11873;49.300;8.920;2022-08-19T11:46:45;5.23;;;4.83;;
23400;SDS011;11873;49.300;8.920;2022-08-19T11:51:46;4.37;;;4.07;;
23400;SDS011;11873;49.300;8.920;2022-08-19T11:56:46;4.57;;;4.10;;
23400;SDS011;11873;49.300;8.920;2022-08-19T12:01:46;4.60;;;4.20;;
23400;SDS011;11873;49.300;8.920;2022-08-19T12:06:46;4.30;;;3.90;;
23400;SDS011;11873;49.300;8.920;2022-08-19T12:11:46;4.03;;;3.73;;
23400;SDS011;11873;49.300;8.920;2022-08-19T12:22:00;6.13;;;3.97;;
23400;SDS011;11873;49.300;8.920;2022-08-19T12:27:00;4.93;;;4.53;;
23400;SDS011;11873;49.300;8.920;2022-08-19T12:32:01;4.70;;;4.30;;
23400;SDS011;11873;49.300;8.920;2022-08-19T12:37:02;5.20;;;4.80;;
23400;SDS011;11873;49.300;8.920;2022-08-19T12:42:03;7.03;;;5.00;;
23400;SDS011;11873;49.300;8.920;2022-08-19T12:47:03;5.53;;;5.03;;
23400;SDS011;11873;49.300;8.920;2022-08-19T12:52:04;5.07;;;4.67;;
23400;SDS011;11873;49.300;8.920;2022-08-19T12:57:05;5.73;;;5.30;;
23400;SDS011;11873;49.300;8.920;2022-08-19T13:02:05;5.43;;;4.93;;
23400;SDS011;11873;49.300;8.920;2022-08-19T13:07:06;5.67;;;5.20;;
23400;SDS011;11873;49.300;8.920;2022-08-19T13:12:07;5.23;;;4.73;;
23400;SDS011;11873;49.300;8.920;2022-08-19T13:17:07;5.87;;;5.37;;
23400;SDS011;11873;49.300;8.920;2022-08-19T13:22:07;6.53;;;5.77;;
23400;SDS011;11873;49.300;8.920;2022-08-19T13:27:08;6.50;;;6.00;;
23400;SDS011;11873;49.300;8.920;2022-08-19T13:32:08;6.80;;;6.10;;
23400;SDS011;11873;49.300;8.920;2022-08-19T13:37:08;7.17;;;6.53;;
23400;SDS011;11873;49.300;8.920;2022-08-19T13:42:08;7.50;;;6.80;;
23400;SDS011;11873;49.300;8.920;2022-08-19T13:47:09;7.00;;;6.40;;
23400;SDS011;11873;49.300;8.920;2022-08-19T13:52:09;6.07;;;5.57;;
23400;SDS011;11873;49.300;8.920;2022-08-19T13:57:09;5.80;;;5.40;;
23400;SDS011;11873;49.300;8.920;2022-08-19T14:02:09;6.17;;;5.67;;
23400;SDS011;11873;49.300;8.920;2022-08-19T14:07:09;5.50;;;5.00;;
23400;SDS011;11873;49.300;8.920;2022-08-19T14:12:10;5.70;;;5.20;;
23400;SDS011;11873;49.300;8.920;2022-08-19T14:17:10;5.50;;;5.03;;
23400;SDS011;11873;49.300;8.920;2022-08-19T14:22:10;6.30;;;5.70;;
23400;SDS011;11873;49.300;8.920;2022-08-19T14:27:10;5.60;;;5.17;;
23400;SDS011;11873;49.300;8.920;2022-08-19T14:32:11;5.43;;;4.93;;
23400;SDS011;11873;49.300;8.920;2022-08-19T14:37:14;4.40;;;4.00;;
23400;SDS011;11873;49.300;8.920;2022-08-19T14:42:14;4.93;;;4.53;;
23400;SDS011;11873;49.300;8.920;2022-08-19T14:47:16;5.00;;;4.60;;
23400;SDS011;11873;49.300;8.920;2022-08-19T14:52:23;5.47;;;4.47;;
23400;SDS011;11873;49.300;8.920;2022-08-19T14:57:23;4.50;;;4.20;;
23400;SDS011;11873;49.300;8.920;2022-08-19T15:02:23;4.57;;;4.17;;
23400;SDS011;11873;49.300;8.920;2022-08-19T15:07:23;5.00;;;4.60;;
23400;SDS011;11873;49.300;8.920;2022-08-19T15:12:24;5.17;;;4.70;;
23400;SDS011;11873;49.300;8.920;2022-08-19T15:17:24;5.70;;;5.20;;
23400;SDS011;11873;49.300;8.920;2022-08-19T15:22:24;5.30;;;4.80;;
23400;SDS011;11873;49.300;8.920;2022-08-19T15:27:25;5.07;;;4.57;;
23400;SDS011;11873;49.300;8.920;2022-08-19T15:32:26;6.03;;;5.13;;
23400;SDS011;11873;49.300;8.920;2022-08-19T15:37:26;4.97;;;4.57;;
23400;SDS011;11873;49.300;8.920;2022-08-19T15:42:26;5.93;;;4.83;;
23400;SDS011;11873;49.300;8.920;2022-08-19T15:47:28;4.87;;;4.47;;
23400;SDS011;11873;49.300;8.920;2022-08-19T15:52:28;5.23;;;4.73;;
23400;SDS011;11873;49.300;8.920;2022-08-19T15:57:29;6.57;;;5.00;;
23400;SDS011;11873;49.300;8.920;2022-08-19T16:02:30;5.07;;;4.67;;
23400;SDS011;11873;49.300;8.920;2022-08-19T16:07:30;6.03;;;5.43;;
23400;SDS011;11873;49.300;8.920;2022-08-19T16:12:30;5.20;;;4.80;;
23400;SDS011;11873;49.300;8.920;2022-08-19T16:17:30;4.80;;;4.40;;
23400;SDS011;11873;49.300;8.920;2022-08-19T16:22:30;5.60;;;5.00;;
23400;SDS011;11873;49.300;8.920;2022-08-19T16:27:31;5.03;;;4.63;;
23400;SDS011;11873;49.300;8.920;2022-08-19T16:32:31;4.90;;;4.50;;
23400;SDS011;11873;49.300;8.920;2022-08-19T16:37:31;5.33;;;4.93;;
23400;SDS011;11873;49.300;8.920;2022-08-19T16:42:31;4.77;;;4.37;;
23400;SDS011;11873;49.300;8.920;2022-08-19T16:47:31;4.47;;;4.07;;
23400;SDS011;11873;49.300;8.920;2022-08-19T16:52:32;4.10;;;3.77;;
23400;SDS011;11873;49.300;8.920;2022-08-19T16:57:32;4.30;;;3.90;;
23400;SDS011;11873;49.300;8.920;2022-08-19T17:02:33;5.00;;;4.60;;
23400;SDS011;11873;49.300;8.920;2022-08-19T17:07:33;4.33;;;4.03;;
23400;SDS011;11873;49.300;8.920;2022-08-19T17:12:33;4.30;;;3.90;;
23400;SDS011;11873;49.300;8.920;2022-08-19T17:17:33;4.93;;;4.27;;
23400;SDS011;11873;49.300;8.920;2022-08-19T17:22:34;4.97;;;4.47;;
23400;SDS011;11873;49.300;8.920;2022-08-19T17:27:35;7.63;;;6.37;;
23400;SDS011;11873;49.300;8.920;2022-08-19T17:32:35;4.33;;;3.93;;
23400;SDS011;11873;49.300;8.920;2022-08-19T17:37:35;5.23;;;4.73;;
23400;SDS011;11873;49.300;8.920;2022-08-19T17:42:36;5.70;;;4.80;;
23400;SDS011;11873;49.300;8.920;2022-08-19T17:47:36;5.50;;;5.00;;
23400;SDS011;11873;49.300;8.920;2022-08-19T17:52:37;5.37;;;4.90;;
23400;SDS011;11873;49.300;8.920;2022-08-19T17:57:38;4.70;;;4.37;;
23400;SDS011;11873;49.300;8.920;2022-08-19T18:02:49;4.23;;;3.90;;
23400;SDS011;11873;49.300;8.920;2022-08-19T18:07:49;5.87;;;5.27;;
23400;SDS011;11873;49.300;8.920;2022-08-19T18:12:50;5.80;;;4.90;;
23400;SDS011;11873;49.300;8.920;2022-08-19T18:17:51;5.97;;;5.37;;
23400;SDS011;11873;49.300;8.920;2022-08-19T18:22:51;6.23;;;5.70;;
23400;SDS011;11873;49.300;8.920;2022-08-19T18:27:55;5.10;;;4.67;;
23400;SDS011;11873;49.300;8.920;2022-08-19T18:32:56;5.00;;;4.57;;
23400;SDS011;11873;49.300;8.920;2022-08-19T18:37:59;5.07;;;4.60;;
23400;SDS011;11873;49.300;8.920;2022-08-19T18:43:00;6.53;;;5.33;;
23400;SDS011;11873;49.300;8.920;2022-08-19T18:48:00;5.90;;;5.40;;
23400;SDS011;11873;49.300;8.920;2022-08-19T18:53:00;5.13;;;4.73;;
23400;SDS011;11873;49.300;8.920;2022-08-19T18:58:00;5.37;;;4.90;;
23400;SDS011;11873;49.300;8.920;2022-08-19T19:03:01;6.13;;;5.53;;
23400;SDS011;11873;49.300;8.920;2022-08-19T19:08:01;7.87;;;5.27;;
23400;SDS011;11873;49.300;8.920;2022-08-19T19:13:01;4.43;;;4.13;;
23400;SDS011;11873;49.300;8.920;2022-08-19T19:18:01;5.33;;;4.83;;
23400;SDS011;11873;49.300;8.920;2022-08-19T19:23:02;6.27;;;4.97;;
23400;SDS011;11873;49.300;8.920;2022-08-19T19:28:02;4.70;;;4.33;;
23400;SDS011;11873;49.300;8.920;2022-08-19T19:33:02;6.20;;;5.53;;
23400;SDS011;11873;49.300;8.920;2022-08-19T19:38:03;6.03;;;5.47;;
23400;SDS011;11873;49.300;8.920;2022-08-19T19:43:03;5.30;;;4.80;;
23400;SDS011;11873;49.300;8.920;2022-08-19T19:48:04;5.20;;;4.70;;
23400;SDS011;11873;49.300;8.920;2022-08-19T19:53:04;5.77;;;5.27;;
23400;SDS011;11873;49.300;8.920;2022-08-19T19:58:04;6.13;;;5.37;;
23400;SDS011;11873;49.300;8.920;2022-08-19T20:03:04;5.67;;;5.17;;
23400;SDS011;11873;49.300;8.920;2022-08-19T20:08:05;5.80;;;5.30;;
23400;SDS011;11873;49.300;8.920;2022-08-19T20:13:05;6.03;;;5.43;;
23400;SDS011;11873;49.300;8.920;2022-08-19T20:18:05;5.73;;;5.33;;
23400;SDS011;11873;49.300;8.920;2022-08-19T20:23:05;5.80;;;5.30;;
23400;SDS011;11873;49.300;8.920;2022-08-19T20:28:06;5.30;;;4.90;;
23400;SDS011;11873;49.300;8.920;2022-08-19T20:33:06;5.90;;;5.40;;
23400;SDS011;11873;49.300;8.920;2022-08-19T20:38:06;5.70;;;5.27;;
23400;SDS011;11873;49.300;8.920;2022-08-19T20:43:10;6.40;;;5.80;;
23400;SDS011;11873;49.300;8.920;2022-08-19T20:48:11;6.37;;;5.87;;
23400;SDS011;11873;49.300;8.920;2022-08-19T20:53:12;7.30;;;5.70;;
23400;SDS011;11873;49.300;8.920;2022-08-19T20:58:13;6.97;;;6.07;;
23400;SDS011;11873;49.300;8.920;2022-08-19T21:03:17;6.03;;;5.53;;
23400;SDS011;11873;49.300;8.920;2022-08-19T21:08:17;7.13;;;6.10;;
23400;SDS011;11873;49.300;8.920;2022-08-19T21:13:18;6.67;;;5.97;;
23400;SDS011;11873;49.300;8.920;2022-08-19T21:18:19;6.03;;;5.47;;
23400;SDS011;11873;49.300;8.920;2022-08-19T21:23:22;6.27;;;5.67;;
23400;SDS011;11873;49.300;8.920;2022-08-19T21:28:23;6.23;;;5.60;;
23400;SDS011;11873;49.300;8.920;2022-08-19T21:33:23;6.67;;;6.07;;
23400;SDS011;11873;49.300;8.920;2022-08-19T21:38:24;6.43;;;5.87;;
23400;SDS011;11873;49.300;8.920;2022-08-19T21:43:24;5.27;;;4.87;;
23400;SDS011;11873;49.300;8.920;2022-08-19T21:48:24;6.30;;;5.73;;
23400;SDS011;11873;49.300;8.920;2022-08-19T21:53:24;6.03;;;5.43;;
23400;SDS011;11873;49.300;8.920;2022-08-19T21:58:25;6.73;;;6.13;;
23400;SDS011;11873;49.300;8.920;2022-08-19T22:03:25;6.47;;;5.97;;
23400;SDS011;11873;49.300;8.920;2022-08-19T22:08:25;6.37;;;5.77;;
23400;SDS011;11873;49.300;8.920;2022-08-19T22:13:25;5.73;;;5.23;;
23400;SDS011;11873;49.300;8.920;2022-08-19T22:18:26;6.13;;;5.63;;
23400;SDS011;11873;49.300;8.920;2022-08-19T22:23:26;6.33;;;5.73;;
23400;SDS011;11873;49.300;8.920;2022-08-19T22:28:26;7.00;;;6.27;;
23400;SDS011;11873;49.300;8.920;2022-08-19T22:33:27;6.63;;;6.03;;
23400;SDS011;11873;49.300;8.920;2022-08-19T22:38:27;5.93;;;5.43;;
23400;SDS011;11873;49.300;8.920;2022-08-19T22:43:28;6.67;;;6.03;;
23400;SDS011;11873;49.300;8.920;2022-08-19T22:48:29;6.90;;;6.20;;
23400;SDS011;11873;49.300;8.920;2022-08-19T22:53:33;6.47;;;5.87;;
23400;SDS011;11873;49.300;8.920;2022-08-19T22:58:34;7.83;;;7.03;;
23400;SDS011;11873;49.300;8.920;2022-08-19T23:03:35;7.90;;;7.20;;
23400;SDS011;11873;49.300;8.920;2022-08-19T23:08:35;9.03;;;6.73;;
23400;SDS011;11873;49.300;8.920;2022-08-19T23:13:36;6.90;;;6.30;;
23400;SDS011;11873;49.300;8.920;2022-08-19T23:18:36;7.17;;;6.57;;
23400;SDS011;11873;49.300;8.920;2022-08-19T23:23:36;6.67;;;6.17;;
23400;SDS011;11873;49.300;8.920;2022-08-19T23:28:37;7.07;;;6.47;;
23400;SDS011;11873;49.300;8.920;2022-08-19T23:33:38;6.43;;;5.83;;
23400;SDS011;11873;49.300;8.920;2022-08-19T23:38:39;7.47;;;6.60;;
23400;SDS011;11873;49.300;8.920;2022-08-19T23:43:40;6.30;;;5.70;;
23400;SDS011;11873;49.300;8.920;2022-08-19T23:48:40;7.53;;;6.83;;
23400;SDS011;11873;49.300;8.920;2022-08-19T23:53:41;7.00;;;6.40;;
23400;SDS011;11873;49.300;8.920;2022-08-19T23:58:41;6.77;;;6.17;;
